Time;durP1;ratioP1;P1;durP2;ratioP2;P2;SDS_P1;SDS_P2;PMS_P1;PMS_P2;Temp;Humidity;BMP_temperature;BMP_pressure;BME280_temperature;BME280_humidity;BME280_pressure;Samples;Min_cycle;Max_cycle;Signal;HPM_P1;HPM_P2
2022/09/19 00:01:47;;;;;;;;;;;11.90;99.90;;;;;;6156623;23;19920;-83
2022/09/19 00:04:17;;;;;;;;;;;11.90;99.90;;;;;;6157269;23;19931;-84
2022/09/19 00:06:47;;;;;;;;;;;11.90;99.90;;;;;;6182575;23;19920;-84
2022/09/19 00:09:16;;;;;;;;;;;11.90;99.90;;;;;;6183818;23;19927;-84
2022/09/19 00:11:45;;;;;;;;;;;11.80;99.90;;;;;;6182733;23;20002;-84
2022/09/19 00:14:15;;;;;;;;;;;11.80;99.90;;;;;;6157313;23;19924;-84
2022/09/19 00:16:45;;;;;;;;;;;11.80;99.90;;;;;;6183387;23;19925;-83
2022/09/19 00:19:14;;;;;;;;;;;11.80;99.90;;;;;;6157304;23;19974;-83
2022/09/19 00:21:43;;;;;;;;;;;11.80;99.90;;;;;;6183425;23;19966;-83
2022/09/19 00:26:57;;;;;;;;;;;11.70;99.90;;;;;;6184188;23;19974;-82
2022/09/19 00:29:26;;;;;;;;;;;11.70;99.90;;;;;;6184106;23;19975;-83
2022/09/19 00:31:53;;;;;;;;;;;11.70;99.90;;;;;;6182608;23;19920;-83
2022/09/19 00:34:20;;;;;;;;;;;11.70;99.90;;;;;;6182045;23;20411;-84
2022/09/19 00:36:48;;;;;;;;;;;11.60;99.90;;;;;;6158299;23;19920;-84
2022/09/19 00:39:17;;;;;;;;;;;11.60;99.90;;;;;;6185563;23;19920;-85
2022/09/19 00:41:45;;;;;;;;;;;11.60;99.90;;;;;;6186987;23;19939;-84
2022/09/19 00:44:51;;;;;;;;;;;11.60;99.90;;;;;;6187060;23;20006;-83
2022/09/19 00:47:24;;;;;;;;;;;11.60;99.90;;;;;;6186637;23;19920;-83
2022/09/19 00:49:54;;;;;;;;;;;11.50;99.90;;;;;;6186083;23;19920;-83
2022/09/19 00:52:27;;;;;;;;;;;11.50;99.90;;;;;;6185104;23;19919;-84
2022/09/19 00:54:56;;;;;;;;;;;11.60;99.90;;;;;;6134778;23;19943;-83
2022/09/19 00:57:36;;;;;;;;;;;11.50;99.90;;;;;;6186214;23;20369;-84
2022/09/19 01:00:06;;;;;;;;;;;11.50;99.90;;;;;;6188765;23;19951;-83
2022/09/19 01:02:33;;;;;;;;;;;11.50;99.90;;;;;;6160118;23;19920;-84
2022/09/19 01:05:02;;;;;;;;;;;11.40;99.90;;;;;;6159965;23;19947;-82
2022/09/19 01:07:35;;;;;;;;;;;11.30;99.90;;;;;;6160068;23;19924;-83
2022/09/19 01:10:09;;;;;;;;;;;11.30;99.90;;;;;;6184755;23;19920;-83
2022/09/19 01:12:47;;;;;;;;;;;11.20;99.90;;;;;;6185538;23;20326;-84
2022/09/19 01:15:26;;;;;;;;;;;11.10;99.90;;;;;;6183932;23;19927;-84
2022/09/19 01:17:57;;;;;;;;;;;11.00;99.90;;;;;;6186927;23;19920;-82
2022/09/19 01:20:52;;;;;;;;;;;11.00;99.90;;;;;;6160082;23;19920;-83
2022/09/19 01:23:43;;;;;;;;;;;10.80;99.90;;;;;;6159737;23;19988;-84
2022/09/19 01:26:31;;;;;;;;;;;10.80;99.90;;;;;;6186285;23;20349;-82
2022/09/19 01:29:02;;;;;;;;;;;10.70;99.90;;;;;;6160142;23;20002;-82
2022/09/19 01:31:30;;;;;;;;;;;10.60;99.90;;;;;;6134822;23;19920;-84
2022/09/19 01:34:02;;;;;;;;;;;10.50;99.90;;;;;;6160115;23;20234;-84
2022/09/19 01:36:34;;;;;;;;;;;10.50;99.90;;;;;;6135165;23;19924;-85
2022/09/19 01:39:03;;;;;;;;;;;10.50;99.90;;;;;;6160576;23;20357;-84
2022/09/19 01:41:36;;;;;;;;;;;10.40;99.90;;;;;;6159942;23;19927;-84
2022/09/19 01:44:06;;;;;;;;;;;10.30;99.90;;;;;;6160179;23;19919;-83
2022/09/19 01:46:41;;;;;;;;;;;10.40;99.90;;;;;;6159932;23;19954;-83
2022/09/19 01:49:17;;;;;;;;;;;10.40;99.90;;;;;;6185544;23;19991;-83
2022/09/19 01:51:46;;;;;;;;;;;10.40;99.90;;;;;;6184705;23;20305;-83
2022/09/19 01:54:27;;;;;;;;;;;10.40;99.90;;;;;;6183249;23;20338;-82
2022/09/19 01:57:06;;;;;;;;;;;10.40;99.90;;;;;;6184495;23;19920;-82
2022/09/19 01:59:44;;;;;;;;;;;10.50;99.90;;;;;;6183169;23;20006;-82
2022/09/19 02:02:17;;;;;;;;;;;10.50;99.90;;;;;;6183079;23;20338;-82
2022/09/19 02:04:49;;;;;;;;;;;10.50;99.90;;;;;;6158383;23;19947;-83
2022/09/19 02:07:23;;;;;;;;;;;10.50;99.90;;;;;;6182134;23;19920;-82
2022/09/19 02:09:55;;;;;;;;;;;10.60;99.90;;;;;;6158732;23;19924;-77
2022/09/19 02:12:25;;;;;;;;;;;10.50;99.90;;;;;;6182415;23;19974;-77
2022/09/19 02:14:57;;;;;;;;;;;10.50;99.90;;;;;;6182685;23;20260;-78
2022/09/19 02:17:35;;;;;;;;;;;10.40;99.90;;;;;;6157515;23;20415;-77
2022/09/19 02:20:08;;;;;;;;;;;10.40;99.90;;;;;;6183143;23;20003;-77
2022/09/19 02:22:38;;;;;;;;;;;10.30;99.90;;;;;;6184766;23;19947;-77
2022/09/19 02:25:08;;;;;;;;;;;10.20;99.90;;;;;;6184118;23;20337;-77
2022/09/19 02:27:40;;;;;;;;;;;10.20;99.90;;;;;;6182382;23;19927;-77
2022/09/19 02:30:12;;;;;;;;;;;10.20;99.90;;;;;;6182390;23;20417;-76
2022/09/19 02:32:46;;;;;;;;;;;10.10;99.90;;;;;;6182405;23;19927;-76
2022/09/19 02:35:15;;;;;;;;;;;10.10;99.90;;;;;;6157915;23;20400;-76
2022/09/19 02:37:46;;;;;;;;;;;10.00;99.90;;;;;;6158169;23;20062;-82
2022/09/19 02:40:20;;;;;;;;;;;10.00;99.90;;;;;;6158313;23;19958;-83
2022/09/19 02:42:51;;;;;;;;;;;10.00;99.90;;;;;;6157999;23;19924;-82
2022/09/19 02:45:31;;;;;;;;;;;10.00;99.90;;;;;;6157482;23;19920;-82
2022/09/19 02:48:06;;;;;;;;;;;9.90;99.90;;;;;;6182539;23;19920;-76
2022/09/19 02:50:40;;;;;;;;;;;9.90;99.90;;;;;;6182727;23;20368;-77
2022/09/19 02:53:12;;;;;;;;;;;10.00;99.90;;;;;;6181599;23;19931;-76
2022/09/19 02:55:45;;;;;;;;;;;10.00;99.90;;;;;;6156076;23;19920;-77
2022/09/19 02:58:15;;;;;;;;;;;10.00;99.90;;;;;;6181256;23;19927;-77
2022/09/19 03:00:48;;;;;;;;;;;10.10;99.90;;;;;;6157516;23;20300;-77
2022/09/19 03:06:06;;;;;;;;;;;10.20;99.90;;;;;;6181816;23;19982;-77
2022/09/19 03:08:36;;;;;;;;;;;10.30;99.90;;;;;;6156998;23;20231;-76
2022/09/19 03:11:07;;;;;;;;;;;10.40;99.90;;;;;;6182034;23;20297;-77
2022/09/19 03:13:38;;;;;;;;;;;10.50;99.90;;;;;;6182311;23;20003;-77
2022/09/19 03:16:10;;;;;;;;;;;10.50;99.90;;;;;;6182163;23;19919;-77
2022/09/19 03:18:39;;;;;;;;;;;10.50;99.90;;;;;;6182150;23;20283;-76
2022/09/19 03:21:09;;;;;;;;;;;10.60;99.90;;;;;;6183598;23;19920;-77
2022/09/19 03:23:44;;;;;;;;;;;10.60;99.90;;;;;;6181064;23;19920;-77
2022/09/19 03:26:15;;;;;;;;;;;10.70;99.90;;;;;;6157035;23;20334;-76
2022/09/19 03:28:43;;;;;;;;;;;10.70;99.90;;;;;;6157318;23;20256;-76
2022/09/19 03:31:12;;;;;;;;;;;10.70;99.90;;;;;;6156771;23;19971;-77
2022/09/19 03:33:40;;;;;;;;;;;10.70;99.90;;;;;;6184150;23;19920;-77
2022/09/19 03:36:11;;;;;;;;;;;10.70;99.90;;;;;;6183883;23;20034;-77
2022/09/19 03:38:44;;;;;;;;;;;10.80;99.90;;;;;;6157566;23;20008;-77
2022/09/19 03:41:12;;;;;;;;;;;10.80;99.90;;;;;;6181882;23;19923;-78
2022/09/19 03:43:42;;;;;;;;;;;10.80;99.90;;;;;;6183333;23;20268;-77
2022/09/19 03:46:11;;;;;;;;;;;10.80;99.90;;;;;;6132181;23;19967;-77
2022/09/19 03:48:40;;;;;;;;;;;10.80;99.90;;;;;;6181989;23;19927;-78
2022/09/19 03:51:07;;;;;;;;;;;10.90;99.90;;;;;;6183580;23;20337;-78
2022/09/19 03:53:34;;;;;;;;;;;10.90;99.90;;;;;;6181752;23;19942;-78
2022/09/19 03:56:03;;;;;;;;;;;10.90;99.90;;;;;;6157130;23;19975;-78
2022/09/19 03:58:31;;;;;;;;;;;10.90;99.90;;;;;;6182267;23;19927;-78
2022/09/19 04:00:58;;;;;;;;;;;10.90;99.90;;;;;;6182205;23;20392;-78
2022/09/19 04:03:26;;;;;;;;;;;10.90;99.90;;;;;;6181025;23;19920;-78
2022/09/19 04:05:54;;;;;;;;;;;11.00;99.90;;;;;;6182438;23;19957;-78
2022/09/19 04:08:23;;;;;;;;;;;11.00;99.90;;;;;;6155215;23;19924;-82
2022/09/19 04:10:51;;;;;;;;;;;10.90;99.90;;;;;;6179257;23;19920;-82
2022/09/19 04:13:20;;;;;;;;;;;11.00;99.90;;;;;;6181600;23;20263;-84
2022/09/19 04:15:47;;;;;;;;;;;10.90;99.90;;;;;;6181426;23;19920;-85
2022/09/19 04:18:16;;;;;;;;;;;11.00;99.90;;;;;;6183133;23;20330;-85
2022/09/19 04:20:44;;;;;;;;;;;11.00;99.90;;;;;;6156976;23;20047;-85
2022/09/19 04:23:47;;;;;;;;;;;11.00;99.90;;;;;;6166047;23;20015;-86
2022/09/19 04:26:32;;;;;;;;;;;11.00;99.90;;;;;;6186005;23;20358;-84
2022/09/19 04:29:02;;;;;;;;;;;11.10;99.90;;;;;;6185974;23;19985;-85
2022/09/19 04:31:35;;;;;;;;;;;11.10;99.90;;;;;;6186855;23;19927;-85
2022/09/19 04:34:03;;;;;;;;;;;11.10;99.90;;;;;;6187544;23;20019;-85
2022/09/19 04:36:32;;;;;;;;;;;11.20;99.90;;;;;;6184583;23;20010;-83
2022/09/19 04:39:06;;;;;;;;;;;11.20;99.90;;;;;;6158521;23;19920;-84
2022/09/19 04:41:40;;;;;;;;;;;11.20;99.90;;;;;;6183752;23;19967;-84
2022/09/19 04:45:03;;;;;;;;;;;11.20;99.90;;;;;;6158050;23;19942;-78
2022/09/19 04:49:09;;;;;;;;;;;11.30;99.90;;;;;;6003989;23;19982;-78
2022/09/19 04:51:40;;;;;;;;;;;11.30;99.90;;;;;;5843894;24;19955;-84
2022/09/19 04:57:27;;;;;;;;;;;11.40;99.90;;;;;;5996405;23;20004;-77
2022/09/19 04:59:58;;;;;;;;;;;11.50;99.90;;;;;;6100127;23;20058;-76
2022/09/19 05:02:31;;;;;;;;;;;11.40;99.90;;;;;;6181064;23;19920;-74
2022/09/19 05:04:59;;;;;;;;;;;11.50;99.90;;;;;;6182317;23;20309;-74
2022/09/19 05:07:33;;;;;;;;;;;11.50;99.90;;;;;;6153372;23;19967;-74
2022/09/19 05:10:05;;;;;;;;;;;11.50;99.90;;;;;;6181597;23;20384;-73
2022/09/19 05:12:37;;;;;;;;;;;11.50;99.90;;;;;;6153494;23;19966;-74
2022/09/19 05:15:05;;;;;;;;;;;11.60;99.90;;;;;;6179941;23;20301;-75
2022/09/19 05:17:32;;;;;;;;;;;11.60;99.90;;;;;;6156496;23;19924;-75
2022/09/19 05:19:59;;;;;;;;;;;11.60;99.90;;;;;;6180028;23;19944;-74
2022/09/19 05:22:30;;;;;;;;;;;11.60;99.90;;;;;;6177776;23;19952;-74
2022/09/19 05:25:04;;;;;;;;;;;11.70;99.90;;;;;;6181034;23;19926;-80
2022/09/19 05:27:35;;;;;;;;;;;11.70;99.90;;;;;;6180917;23;19924;-74
2022/09/19 05:30:03;;;;;;;;;;;11.80;99.90;;;;;;6180513;23;19924;-75
2022/09/19 05:32:34;;;;;;;;;;;11.80;99.90;;;;;;6181994;23;19931;-74
2022/09/19 05:35:14;;;;;;;;;;;11.80;99.90;;;;;;6181149;23;19959;-76
2022/09/19 05:38:20;;;;;;;;;;;11.80;99.90;;;;;;6092923;23;19944;-76
2022/09/19 05:41:14;;;;;;;;;;;11.90;99.90;;;;;;6065415;23;19921;-74
2022/09/19 05:43:46;;;;;;;;;;;11.90;99.90;;;;;;6127120;23;19928;-75
2022/09/19 05:46:14;;;;;;;;;;;12.00;99.90;;;;;;6181381;23;20257;-75
2022/09/19 05:48:44;;;;;;;;;;;12.10;99.90;;;;;;6180337;23;20305;-76
2022/09/19 05:51:11;;;;;;;;;;;12.10;99.90;;;;;;6181399;23;20003;-75
2022/09/19 05:53:52;;;;;;;;;;;12.20;99.90;;;;;;6181428;23;19991;-75
2022/09/19 05:56:41;;;;;;;;;;;12.30;99.90;;;;;;6183577;23;20420;-81
2022/09/19 05:59:11;;;;;;;;;;;12.40;99.90;;;;;;6184416;23;19927;-80
2022/09/19 06:01:41;;;;;;;;;;;12.40;99.90;;;;;;6182732;23;19920;-83
2022/09/19 06:04:18;;;;;;;;;;;12.40;99.90;;;;;;6183393;23;19920;-83
2022/09/19 06:06:49;;;;;;;;;;;12.50;99.90;;;;;;6184259;23;19943;-84
2022/09/19 06:09:18;;;;;;;;;;;12.50;99.90;;;;;;6185433;23;19920;-84
2022/09/19 06:11:45;;;;;;;;;;;12.60;99.90;;;;;;6159289;23;19920;-87
2022/09/19 06:14:18;;;;;;;;;;;12.70;99.90;;;;;;6187579;23;19920;-87
2022/09/19 06:16:50;;;;;;;;;;;12.70;99.90;;;;;;6160192;23;19926;-81
2022/09/19 06:19:35;;;;;;;;;;;12.80;99.90;;;;;;6184550;23;19947;-82
2022/09/19 06:22:07;;;;;;;;;;;12.90;99.90;;;;;;6158206;23;19920;-82
2022/09/19 06:24:36;;;;;;;;;;;12.90;99.90;;;;;;6183168;23;20309;-83
2022/09/19 06:27:06;;;;;;;;;;;13.00;99.90;;;;;;6133901;23;20019;-83
2022/09/19 06:29:36;;;;;;;;;;;13.00;99.90;;;;;;6183255;23;19924;-81
2022/09/19 06:32:22;;;;;;;;;;;13.10;99.90;;;;;;6183007;23;19924;-80
2022/09/19 06:35:02;;;;;;;;;;;13.20;99.90;;;;;;6155970;23;19920;-77
2022/09/19 06:37:33;;;;;;;;;;;13.30;99.90;;;;;;6180801;23;20007;-81
2022/09/19 06:40:02;;;;;;;;;;;13.30;99.90;;;;;;6157135;23;19983;-81
2022/09/19 06:43:01;;;;;;;;;;;13.30;99.90;;;;;;6159165;23;19920;-82
2022/09/19 06:45:37;;;;;;;;;;;13.30;99.90;;;;;;6156406;23;19924;-81
2022/09/19 06:48:23;;;;;;;;;;;13.30;99.90;;;;;;6182370;23;20349;-82
2022/09/19 06:51:03;;;;;;;;;;;13.30;99.90;;;;;;6181361;23;19926;-81
2022/09/19 06:53:31;;;;;;;;;;;13.40;99.90;;;;;;6183294;23;19938;-80
2022/09/19 06:56:03;;;;;;;;;;;13.40;99.90;;;;;;6156562;23;19948;-81
2022/09/19 06:58:30;;;;;;;;;;;13.50;99.90;;;;;;6132561;23;19924;-80
2022/09/19 07:01:02;;;;;;;;;;;13.50;99.90;;;;;;6184295;23;19955;-80
2022/09/19 07:03:29;;;;;;;;;;;13.50;99.90;;;;;;6157091;23;19926;-81
2022/09/19 07:06:01;;;;;;;;;;;13.60;99.90;;;;;;6157302;23;20330;-82
2022/09/19 07:08:35;;;;;;;;;;;13.60;99.90;;;;;;6182426;23;19927;-80
2022/09/19 07:11:04;;;;;;;;;;;13.70;99.90;;;;;;6133165;23;19958;-80
2022/09/19 07:13:34;;;;;;;;;;;13.70;99.90;;;;;;6157581;23;19920;-81
2022/09/19 07:16:06;;;;;;;;;;;13.70;99.90;;;;;;6157281;23;19920;-83
2022/09/19 07:18:35;;;;;;;;;;;13.80;99.90;;;;;;6157653;23;19923;-84
2022/09/19 07:21:22;;;;;;;;;;;13.80;99.90;;;;;;6157362;23;20273;-82
2022/09/19 07:23:50;;;;;;;;;;;13.80;99.90;;;;;;6133653;23;20368;-83
2022/09/19 07:26:33;;;;;;;;;;;13.90;99.90;;;;;;6184778;23;20358;-84
2022/09/19 07:29:01;;;;;;;;;;;13.90;99.90;;;;;;6185901;23;19958;-81
2022/09/19 07:31:30;;;;;;;;;;;13.90;99.90;;;;;;6163919;23;19986;-83
2022/09/19 07:33:57;;;;;;;;;;;14.00;99.90;;;;;;6193673;23;20018;-83
2022/09/19 07:36:29;;;;;;;;;;;14.00;99.90;;;;;;6161212;23;19920;-82
2022/09/19 07:38:56;;;;;;;;;;;14.00;99.90;;;;;;6183146;23;19927;-82
2022/09/19 07:41:26;;;;;;;;;;;14.10;99.90;;;;;;6183832;23;19964;-80
2022/09/19 07:44:22;;;;;;;;;;;14.10;99.90;;;;;;6156788;23;19936;-80
2022/09/19 07:47:28;;;;;;;;;;;14.20;99.90;;;;;;6185414;23;19954;-80
2022/09/19 07:50:24;;;;;;;;;;;14.20;99.90;;;;;;6105314;23;19928;-81
2022/09/19 07:53:00;;;;;;;;;;;14.30;99.90;;;;;;6183168;23;19928;-81
2022/09/19 07:55:30;;;;;;;;;;;14.30;99.90;;;;;;6182063;23;20334;-82
2022/09/19 07:58:00;;;;;;;;;;;14.30;99.90;;;;;;6182044;23;20104;-82
2022/09/19 08:01:02;;;;;;;;;;;14.30;99.90;;;;;;6091708;23;19921;-83
2022/09/19 08:03:49;;;;;;;;;;;14.30;99.90;;;;;;6176017;23;19956;-84
2022/09/19 08:06:21;;;;;;;;;;;14.20;99.90;;;;;;6181931;23;20262;-84
2022/09/19 08:08:49;;;;;;;;;;;14.20;99.90;;;;;;6157177;23;19920;-82
2022/09/19 08:11:39;;;;;;;;;;;14.10;99.90;;;;;;6156858;23;19974;-81
2022/09/19 08:14:06;;;;;;;;;;;14.10;99.90;;;;;;6156940;23;19994;-82
2022/09/19 08:16:34;;;;;;;;;;;14.10;99.90;;;;;;6181377;23;19920;-82
2022/09/19 08:19:04;;;;;;;;;;;14.10;99.90;;;;;;6156739;23;19926;-82
2022/09/19 08:21:31;;;;;;;;;;;14.10;99.90;;;;;;6182124;23;20007;-79
2022/09/19 08:23:59;;;;;;;;;;;14.20;99.90;;;;;;6181708;23;20340;-82
2022/09/19 08:26:27;;;;;;;;;;;14.30;99.90;;;;;;6156550;23;20265;-80
2022/09/19 08:28:55;;;;;;;;;;;14.40;99.90;;;;;;6180885;23;19931;-77
2022/09/19 08:31:26;;;;;;;;;;;14.50;99.90;;;;;;6181425;23;20323;-78
2022/09/19 08:33:53;;;;;;;;;;;14.50;99.90;;;;;;6181855;23;19920;-78
2022/09/19 08:36:22;;;;;;;;;;;14.60;99.90;;;;;;6181546;23;19927;-78
2022/09/19 08:38:52;;;;;;;;;;;14.60;99.90;;;;;;6180216;23;19926;-79
2022/09/19 08:41:47;;;;;;;;;;;14.70;99.90;;;;;;6181147;23;19928;-79
2022/09/19 08:44:18;;;;;;;;;;;14.80;99.90;;;;;;6155452;23;19947;-76
2022/09/19 08:46:50;;;;;;;;;;;14.90;99.90;;;;;;6180281;23;20325;-77
2022/09/19 08:49:21;;;;;;;;;;;15.00;99.90;;;;;;6179294;23;20353;-78
2022/09/19 08:51:55;;;;;;;;;;;15.00;99.90;;;;;;6180452;23;19972;-78
2022/09/19 08:54:27;;;;;;;;;;;15.00;99.90;;;;;;6155178;23;19920;-79
2022/09/19 08:56:55;;;;;;;;;;;14.90;99.90;;;;;;6155968;23;20016;-76
2022/09/19 08:59:24;;;;;;;;;;;15.00;99.90;;;;;;6132356;23;19920;-78
2022/09/19 09:02:02;;;;;;;;;;;15.00;99.90;;;;;;6157117;23;19920;-77
2022/09/19 09:04:30;;;;;;;;;;;15.00;99.90;;;;;;6183932;23;19920;-79
2022/09/19 09:07:15;;;;;;;;;;;15.00;99.90;;;;;;6132226;23;20114;-80
2022/09/19 09:10:03;;;;;;;;;;;15.00;99.90;;;;;;6181990;23;20371;-79
2022/09/19 09:12:40;;;;;;;;;;;15.00;99.90;;;;;;6182652;23;19927;-79
2022/09/19 09:15:17;;;;;;;;;;;14.90;99.90;;;;;;6132275;23;20301;-78
2022/09/19 09:17:55;;;;;;;;;;;14.90;99.90;;;;;;6182907;23;20011;-78
2022/09/19 09:20:28;;;;;;;;;;;14.90;99.90;;;;;;6180827;23;19920;-77
2022/09/19 09:23:06;;;;;;;;;;;14.80;99.90;;;;;;6181732;23;20294;-73
2022/09/19 09:26:00;;;;;;;;;;;14.70;99.90;;;;;;6156782;23;19920;-74
2022/09/19 09:28:34;;;;;;;;;;;14.60;99.90;;;;;;6182349;23;19928;-74
2022/09/19 09:31:29;;;;;;;;;;;14.50;99.90;;;;;;6160150;23;19927;-74
2022/09/19 09:34:16;;;;;;;;;;;14.40;99.90;;;;;;6131907;23;19948;-74
2022/09/19 09:36:50;;;;;;;;;;;14.30;99.90;;;;;;6157385;23;20293;-75
2022/09/19 09:39:26;;;;;;;;;;;14.20;99.90;;;;;;6155520;23;19942;-74
2022/09/19 09:41:56;;;;;;;;;;;14.10;99.90;;;;;;6181829;23;19952;-74
2022/09/19 09:44:44;;;;;;;;;;;14.10;99.90;;;;;;6181349;23;19927;-74
2022/09/19 09:47:24;;;;;;;;;;;14.10;99.90;;;;;;6157635;23;19924;-74
2022/09/19 09:49:53;;;;;;;;;;;14.10;99.90;;;;;;6156758;23;19920;-76
2022/09/19 09:52:34;;;;;;;;;;;14.10;99.90;;;;;;6131727;23;19954;-74
2022/09/19 09:58:18;;;;;;;;;;;14.20;99.90;;;;;;6182775;23;20337;-75
2022/09/19 10:03:48;;;;;;;;;;;14.20;99.90;;;;;;6183466;23;19920;-74
2022/09/19 10:06:38;;;;;;;;;;;14.20;99.90;;;;;;6182838;23;20012;-75
2022/09/19 10:09:10;;;;;;;;;;;14.30;99.90;;;;;;6156714;23;20010;-74
2022/09/19 10:11:42;;;;;;;;;;;14.30;99.90;;;;;;6181805;23;19927;-75
2022/09/19 10:14:18;;;;;;;;;;;14.40;99.90;;;;;;6157093;23;19920;-74
2022/09/19 10:16:47;;;;;;;;;;;14.40;99.90;;;;;;6181621;23;19927;-74
2022/09/19 10:19:25;;;;;;;;;;;14.30;99.90;;;;;;6157462;23;19966;-74
2022/09/19 10:21:53;;;;;;;;;;;14.30;99.90;;;;;;6157626;23;19948;-73
2022/09/19 10:24:47;;;;;;;;;;;14.20;99.90;;;;;;6157437;23;19920;-74
2022/09/19 10:27:23;;;;;;;;;;;14.20;99.90;;;;;;6182229;23;19947;-75
2022/09/19 10:29:56;;;;;;;;;;;14.10;99.90;;;;;;6181844;23;20368;-74
2022/09/19 10:32:25;;;;;;;;;;;14.10;99.90;;;;;;6132698;23;19947;-73
2022/09/19 10:35:26;;;;;;;;;;;14.00;99.90;;;;;;6182843;23;20246;-74
2022/09/19 10:38:00;;;;;;;;;;;14.00;99.90;;;;;;6133074;23;20272;-74
2022/09/19 10:40:31;;;;;;;;;;;13.90;99.90;;;;;;6181569;23;20356;-74
2022/09/19 10:43:01;;;;;;;;;;;13.90;99.90;;;;;;6181256;23;19973;-75
2022/09/19 10:45:33;;;;;;;;;;;14.00;99.90;;;;;;6181290;23;20309;-73
2022/09/19 10:48:10;;;;;;;;;;;13.90;99.90;;;;;;6182279;23;19951;-74
2022/09/19 10:50:42;;;;;;;;;;;13.90;99.90;;;;;;6132110;23;20011;-74
2022/09/19 10:53:18;;;;;;;;;;;13.90;99.90;;;;;;6157775;23;19920;-72
2022/09/19 10:55:45;;;;;;;;;;;13.90;99.90;;;;;;6156714;23;20015;-75
2022/09/19 10:58:18;;;;;;;;;;;13.90;99.90;;;;;;6156399;23;19982;-74
2022/09/19 11:00:52;;;;;;;;;;;13.90;99.90;;;;;;6156285;23;19920;-74
2022/09/19 11:03:23;;;;;;;;;;;13.90;99.90;;;;;;6182536;23;19920;-74
2022/09/19 11:06:14;;;;;;;;;;;13.90;99.90;;;;;;6180351;23;20265;-74
2022/09/19 11:08:53;;;;;;;;;;;13.90;99.90;;;;;;6130716;23;19920;-74
2022/09/19 11:11:45;;;;;;;;;;;13.80;99.90;;;;;;6180930;23;19971;-74
2022/09/19 11:14:19;;;;;;;;;;;13.70;99.90;;;;;;6156444;23;19920;-74
2022/09/19 11:17:12;;;;;;;;;;;13.70;99.90;;;;;;6156519;23;19927;-74
2022/09/19 11:19:52;;;;;;;;;;;13.70;99.90;;;;;;6181413;23;19998;-73
2022/09/19 11:22:32;;;;;;;;;;;13.70;99.90;;;;;;6181553;23;19920;-73
2022/09/19 11:25:10;;;;;;;;;;;13.70;99.90;;;;;;6181587;23;20353;-74
2022/09/19 11:27:46;;;;;;;;;;;13.70;99.90;;;;;;6181760;23;19920;-74
2022/09/19 11:30:20;;;;;;;;;;;13.80;99.90;;;;;;6181358;23;19924;-74
2022/09/19 11:33:02;;;;;;;;;;;13.80;99.90;;;;;;6156341;23;19920;-74
2022/09/19 11:36:01;;;;;;;;;;;13.80;99.90;;;;;;6128891;23;19927;-74
2022/09/19 11:38:36;;;;;;;;;;;13.80;99.90;;;;;;6156327;23;19920;-74
2022/09/19 11:41:23;;;;;;;;;;;13.80;99.90;;;;;;6156237;23;19927;-73
2022/09/19 11:44:00;;;;;;;;;;;13.80;99.90;;;;;;6182447;23;19967;-73
2022/09/19 11:46:40;;;;;;;;;;;13.80;99.90;;;;;;6155718;23;20318;-74
2022/09/19 11:49:26;;;;;;;;;;;13.70;99.90;;;;;;6153407;23;19920;-73
2022/09/19 11:52:01;;;;;;;;;;;13.70;99.90;;;;;;6154164;23;19926;-73
2022/09/19 11:54:44;;;;;;;;;;;13.70;99.90;;;;;;6155049;23;20008;-72
2022/09/19 11:57:21;;;;;;;;;;;13.70;99.90;;;;;;6179293;23;19920;-72
2022/09/19 12:00:05;;;;;;;;;;;13.70;99.90;;;;;;6181035;23;20313;-72
2022/09/19 12:02:59;;;;;;;;;;;13.60;99.90;;;;;;6182326;23;20119;-72
2022/09/19 12:05:43;;;;;;;;;;;13.60;99.90;;;;;;6181033;23;19931;-71
2022/09/19 12:08:21;;;;;;;;;;;13.60;99.90;;;;;;6156326;23;20337;-74
2022/09/19 12:10:51;;;;;;;;;;;13.50;99.90;;;;;;6181112;23;19926;-74
2022/09/19 12:13:22;;;;;;;;;;;13.60;99.90;;;;;;6181226;23;20011;-74
2022/09/19 12:15:58;;;;;;;;;;;13.50;99.90;;;;;;6181012;23;20415;-75
2022/09/19 12:18:31;;;;;;;;;;;13.50;99.90;;;;;;6180872;23;19931;-71
2022/09/19 12:21:00;;;;;;;;;;;13.50;99.90;;;;;;6155755;23;19920;-77
2022/09/19 12:26:26;;;;;;;;;;;13.50;99.90;;;;;;6181543;23;19920;-77
2022/09/19 12:28:57;;;;;;;;;;;13.50;99.90;;;;;;6181711;23;19920;-79
2022/09/19 12:31:28;;;;;;;;;;;13.50;99.90;;;;;;6181470;23;19985;-77
2022/09/19 12:34:02;;;;;;;;;;;13.50;99.90;;;;;;6156288;23;20375;-77
2022/09/19 12:36:35;;;;;;;;;;;13.40;99.90;;;;;;6180562;23;19924;-76
2022/09/19 12:39:07;;;;;;;;;;;13.40;99.90;;;;;;6156413;23;19920;-78
2022/09/19 12:41:40;;;;;;;;;;;13.40;99.90;;;;;;6129931;23;20315;-77
2022/09/19 12:44:14;;;;;;;;;;;13.40;99.90;;;;;;6182202;23;19920;-78
2022/09/19 12:46:49;;;;;;;;;;;13.40;99.90;;;;;;6156236;23;19920;-75
2022/09/19 12:49:28;;;;;;;;;;;13.40;99.90;;;;;;6181224;23;20333;-78
2022/09/19 12:52:08;;;;;;;;;;;13.30;99.90;;;;;;6156015;23;20293;-77
2022/09/19 12:54:39;;;;;;;;;;;13.30;99.90;;;;;;6182784;23;19920;-71
2022/09/19 12:57:11;;;;;;;;;;;13.30;99.90;;;;;;6156574;23;19932;-76
2022/09/19 12:59:38;;;;;;;;;;;13.30;99.90;;;;;;6182924;23;20302;-71
2022/09/19 13:02:13;;;;;;;;;;;13.20;99.90;;;;;;6156610;23;19927;-77
2022/09/19 13:04:49;;;;;;;;;;;13.20;99.90;;;;;;6183266;23;19927;-77
2022/09/19 13:07:21;;;;;;;;;;;13.30;99.90;;;;;;6182986;23;19926;-78
2022/09/19 13:09:54;;;;;;;;;;;13.20;99.90;;;;;;6182436;23;19920;-75
2022/09/19 13:12:27;;;;;;;;;;;13.30;99.90;;;;;;6156400;23;20316;-76
2022/09/19 13:14:58;;;;;;;;;;;13.30;99.90;;;;;;6181096;23;19920;-75
2022/09/19 13:23:32;;;;;;;;;;;13.30;99.90;;;;;;6100792;23;19927;-73
2022/09/19 13:26:19;;;;;;;;;;;13.40;99.90;;;;;;6182240;23;19955;-73
2022/09/19 13:28:49;;;;;;;;;;;13.40;99.90;;;;;;6182508;23;20007;-74
2022/09/19 13:31:17;;;;;;;;;;;13.50;99.90;;;;;;6182083;23;19920;-72
2022/09/19 13:33:47;;;;;;;;;;;13.50;99.90;;;;;;6182414;23;19950;-77
2022/09/19 13:36:18;;;;;;;;;;;13.50;99.90;;;;;;6181464;23;19919;-77
2022/09/19 13:38:47;;;;;;;;;;;13.40;99.90;;;;;;6181901;23;19980;-78
2022/09/19 13:41:19;;;;;;;;;;;13.40;99.90;;;;;;6182403;23;19927;-77
2022/09/19 13:44:03;;;;;;;;;;;13.50;99.90;;;;;;6183037;23;19923;-78
2022/09/19 13:46:33;;;;;;;;;;;13.40;99.90;;;;;;6157318;23;19927;-78
2022/09/19 13:49:07;;;;;;;;;;;13.40;99.90;;;;;;6184373;23;20364;-77
2022/09/19 13:51:41;;;;;;;;;;;13.30;99.90;;;;;;6184288;23;20298;-78
2022/09/19 13:54:30;;;;;;;;;;;13.30;99.90;;;;;;6183606;23;19999;-79
2022/09/19 13:57:06;;;;;;;;;;;13.30;99.90;;;;;;6183608;23;19920;-80
2022/09/19 13:59:37;;;;;;;;;;;13.30;99.90;;;;;;6183437;23;20003;-77
2022/09/19 14:02:12;;;;;;;;;;;13.30;99.90;;;;;;6181696;23;20007;-78
2022/09/19 14:04:57;;;;;;;;;;;13.20;99.90;;;;;;6156864;23;19927;-77
2022/09/19 14:07:42;;;;;;;;;;;13.20;99.90;;;;;;6158477;23;20193;-77
2022/09/19 14:10:19;;;;;;;;;;;13.20;99.90;;;;;;6157280;23;19920;-76
2022/09/19 14:12:57;;;;;;;;;;;13.10;99.90;;;;;;6155729;23;19966;-77
2022/09/19 14:15:31;;;;;;;;;;;13.10;99.90;;;;;;6183864;23;19993;-76
2022/09/19 14:18:03;;;;;;;;;;;13.00;99.90;;;;;;6184894;23;19911;-76
2022/09/19 14:20:50;;;;;;;;;;;13.00;99.90;;;;;;6181477;23;19920;-76
2022/09/19 14:23:20;;;;;;;;;;;13.00;99.90;;;;;;6183394;23;19978;-75
2022/09/19 14:25:55;;;;;;;;;;;13.00;99.90;;;;;;6184851;23;19926;-76
2022/09/19 14:28:46;;;;;;;;;;;12.90;99.90;;;;;;6185249;23;19931;-75
2022/09/19 14:31:29;;;;;;;;;;;12.90;99.90;;;;;;6156310;23;19926;-75
2022/09/19 14:34:27;;;;;;;;;;;12.80;99.90;;;;;;6106141;23;19927;-78
2022/09/19 14:37:40;;;;;;;;;;;12.80;99.90;;;;;;6179761;23;19926;-75
2022/09/19 14:40:22;;;;;;;;;;;12.70;99.90;;;;;;6102808;23;19967;-75
2022/09/19 14:43:32;;;;;;;;;;;12.70;99.90;;;;;;6179817;23;19955;-75
2022/09/19 14:46:20;;;;;;;;;;;12.70;99.90;;;;;;6179715;23;20358;-75
2022/09/19 14:48:55;;;;;;;;;;;12.60;99.90;;;;;;6183340;23;20007;-75
2022/09/19 14:51:37;;;;;;;;;;;12.60;99.90;;;;;;6182251;23;19920;-75
2022/09/19 14:54:12;;;;;;;;;;;12.60;99.90;;;;;;6183866;23;20342;-75
2022/09/19 14:56:40;;;;;;;;;;;12.50;99.90;;;;;;6183161;23;19926;-76
2022/09/19 14:59:18;;;;;;;;;;;12.50;99.90;;;;;;6183772;23;19936;-77
2022/09/19 15:01:45;;;;;;;;;;;12.50;99.90;;;;;;6183238;23;19935;-76
2022/09/19 15:04:19;;;;;;;;;;;12.50;99.90;;;;;;6179443;23;20010;-76
2022/09/19 15:06:48;;;;;;;;;;;12.50;99.90;;;;;;6181910;23;20349;-74
2022/09/19 15:09:20;;;;;;;;;;;12.50;99.90;;;;;;6131010;23;19920;-73
2022/09/19 15:11:50;;;;;;;;;;;12.50;99.90;;;;;;6154599;23;19924;-75
2022/09/19 15:14:22;;;;;;;;;;;12.50;99.90;;;;;;6182648;23;19946;-79
2022/09/19 15:16:52;;;;;;;;;;;12.50;99.90;;;;;;6181549;23;19919;-74
2022/09/19 15:19:22;;;;;;;;;;;12.50;99.90;;;;;;6180265;23;19947;-79
2022/09/19 15:21:49;;;;;;;;;;;12.50;99.90;;;;;;6131018;23;19966;-79
2022/09/19 15:24:17;;;;;;;;;;;12.40;99.90;;;;;;6182343;23;19920;-79
2022/09/19 15:26:47;;;;;;;;;;;12.40;99.90;;;;;;6182284;23;19920;-73